createdAt,value
2023-05-01T00:01:48.953Z,62.83
2023-05-01T00:04:15.919Z,62.66
2023-05-01T00:06:42.875Z,62.67
2023-05-01T00:09:09.687Z,62.89
2023-05-01T00:11:37.784Z,62.81
2023-05-01T00:14:04.859Z,62.44
2023-05-01T00:16:31.644Z,62.63
2023-05-01T00:18:58.789Z,62.29
2023-05-01T00:21:25.587Z,62.42
2023-05-01T00:23:52.353Z,62.27
2023-05-01T00:26:19.255Z,62.40
2023-05-01T00:28:46.108Z,62.54
2023-05-01T00:31:13.174Z,62.38
2023-05-01T00:33:40.977Z,62.33
2023-05-01T00:36:07.841Z,62.26
2023-05-01T00:38:34.994Z,62.41
2023-05-01T00:41:01.870Z,62.47
2023-05-01T00:43:28.645Z,62.66
2023-05-01T00:45:55.444Z,62.39
2023-05-01T00:48:22.347Z,62.72
2023-05-01T00:50:49.117Z,62.32
2023-05-01T00:53:16.018Z,62.60
2023-05-01T00:55:43.523Z,62.29
2023-05-01T00:58:11.057Z,62.30
2023-05-01T01:00:38.163Z,62.21
2023-05-01T01:03:05.189Z,62.68
2023-05-01T01:05:32.820Z,62.96
2023-05-01T01:08:15.972Z,63.10
2023-05-01T01:10:42.722Z,62.78
2023-05-01T01:13:19.492Z,62.42
2023-05-01T01:15:50.903Z,62.69
2023-05-01T01:18:40.695Z,62.31
2023-05-01T01:21:23.747Z,62.64
2023-05-01T01:24:17.420Z,62.26
2023-05-01T01:27:12.148Z,62.42
2023-05-01T01:30:29.962Z,62.56
2023-05-01T01:33:16.759Z,62.64
2023-05-01T01:35:47.221Z,62.27
2023-05-01T01:38:18.278Z,62.75
2023-05-01T01:40:54.087Z,62.79
2023-05-01T01:43:20.827Z,62.82
2023-05-01T01:45:48.234Z,62.83
2023-05-01T01:48:19.594Z,62.66
2023-05-01T01:50:46.772Z,62.61
2023-05-01T01:53:15.324Z,62.88
2023-05-01T01:55:42.721Z,62.72
2023-05-01T01:58:10.765Z,62.84
2023-05-01T02:00:38.200Z,62.96
2023-05-01T02:03:05.184Z,62.66
2023-05-01T02:05:32.376Z,62.89
2023-05-01T02:07:59.162Z,62.67
2023-05-01T02:10:26.033Z,62.98
2023-05-01T02:12:53.441Z,63.31
2023-05-01T02:15:20.183Z,63.36
2023-05-01T02:17:47.039Z,63.27
2023-05-01T02:20:13.909Z,63.04
2023-05-01T02:22:41.163Z,63.03
2023-05-01T02:25:10.225Z,63.20
2023-05-01T02:27:41.120Z,63.37
2023-05-01T02:30:08.630Z,63.08
2023-05-01T02:32:35.722Z,63.19
2023-05-01T02:35:02.580Z,63.69
2023-05-01T02:37:30.906Z,63.68
2023-05-01T02:39:58.820Z,63.71
2023-05-01T02:42:26.206Z,63.80
2023-05-01T02:45:05.992Z,63.75
2023-05-01T02:47:34.273Z,64.10
2023-05-01T02:50:01.114Z,64.16
2023-05-01T02:52:28.724Z,64.50
2023-05-01T02:54:55.451Z,64.48
2023-05-01T02:57:22.385Z,64.66
2023-05-01T02:59:49.192Z,64.99
2023-05-01T03:02:18.666Z,64.98
2023-05-01T03:04:45.459Z,64.94
2023-05-01T03:07:12.399Z,65.01
2023-05-01T03:09:39.246Z,65.11
2023-05-01T03:12:06.093Z,65.50
2023-05-01T03:14:33.187Z,66.02
2023-05-01T03:16:59.989Z,65.87
2023-05-01T03:19:27.229Z,65.92
2023-05-01T03:21:54.109Z,66.23
2023-05-01T03:24:21.123Z,66.02
2023-05-01T03:26:48.655Z,66.01
2023-05-01T03:29:15.500Z,66.23
2023-05-01T03:31:42.423Z,65.80
2023-05-01T03:34:09.185Z,65.91
2023-05-01T03:36:36.625Z,65.85
2023-05-01T03:39:05.018Z,66.24
2023-05-01T03:41:32.351Z,66.10
2023-05-01T03:43:59.425Z,66.30
2023-05-01T03:46:26.159Z,66.27
2023-05-01T03:48:52.960Z,66.43
2023-05-01T03:51:19.838Z,66.64
2023-05-01T03:53:46.542Z,66.35
2023-05-01T03:56:13.357Z,66.43
2023-05-01T03:58:40.138Z,65.92
2023-05-01T04:01:06.909Z,66.12
2023-05-01T04:03:33.809Z,65.87
2023-05-01T04:06:00.853Z,66.38
2023-05-01T04:08:27.609Z,66.45
2023-05-01T04:10:54.437Z,66.75
2023-05-01T04:13:21.532Z,67.21
2023-05-01T04:15:48.501Z,67.66
2023-05-01T04:18:15.415Z,68.10
2023-05-01T04:20:42.377Z,68.98
2023-05-01T04:23:09.727Z,69.66
2023-05-01T04:25:37.103Z,69.78
2023-05-01T04:28:04.108Z,70.40
2023-05-01T04:30:33.783Z,70.45
2023-05-01T04:33:00.365Z,70.79
2023-05-01T04:35:27.211Z,71.54
2023-05-01T04:37:54.082Z,72.46
2023-05-01T04:40:21.020Z,72.24
2023-05-01T04:42:47.756Z,72.13
2023-05-01T04:45:14.586Z,72.44
2023-05-01T04:47:41.420Z,72.42
2023-05-01T04:50:08.498Z,72.28
2023-05-01T04:52:36.096Z,71.89
2023-05-01T04:55:04.006Z,71.62
2023-05-01T04:57:30.816Z,71.32
2023-05-01T04:59:57.967Z,71.69
2023-05-01T05:02:25.248Z,72.03
2023-05-01T05:04:54.064Z,72.20
2023-05-01T05:07:21.217Z,72.01
2023-05-01T05:09:48.158Z,72.12
2023-05-01T05:12:15.228Z,72.07
2023-05-01T05:14:42.432Z,72.26
2023-05-01T05:17:09.817Z,71.83
2023-05-01T05:19:36.746Z,71.83
2023-05-01T05:22:04.008Z,71.54
2023-05-01T05:24:31.132Z,70.98
2023-05-01T05:26:58.109Z,71.03
2023-05-01T05:29:24.950Z,70.98
2023-05-01T05:31:51.872Z,70.87
2023-05-01T05:34:19.579Z,70.45
2023-05-01T05:36:46.411Z,70.47
2023-05-01T05:39:14.852Z,70.24
2023-05-01T05:41:41.630Z,70.25
2023-05-01T05:44:08.435Z,70.30
2023-05-01T05:46:35.401Z,70.25
2023-05-01T05:49:02.181Z,69.99
2023-05-01T05:51:28.921Z,70.09
2023-05-01T05:53:55.755Z,70.48
2023-05-01T05:56:23.246Z,69.98
2023-05-01T05:58:50.029Z,69.75
2023-05-01T06:01:18.041Z,69.92
2023-05-01T06:03:44.913Z,69.69
2023-05-01T06:06:11.710Z,69.50
2023-05-01T06:08:38.756Z,69.62
2023-05-01T06:11:05.650Z,69.89
2023-05-01T06:13:33.004Z,70.26
2023-05-01T06:16:00.007Z,70.26
2023-05-01T06:18:27.259Z,70.13
2023-05-01T06:20:54.523Z,70.15
2023-05-01T06:23:21.406Z,70.25
2023-05-01T06:25:49.211Z,70.01
2023-05-01T06:28:16.131Z,69.54
2023-05-01T06:30:43.027Z,69.65
2023-05-01T06:33:10.479Z,69.28
2023-05-01T06:35:39.800Z,68.97
2023-05-01T06:38:07.030Z,68.64
2023-05-01T06:40:35.283Z,68.72
2023-05-01T06:43:03.116Z,68.05
2023-05-01T06:45:29.954Z,67.65
2023-05-01T06:47:56.892Z,67.38
2023-05-01T06:50:23.668Z,67.37
2023-05-01T06:52:50.524Z,66.64
2023-05-01T06:55:17.255Z,66.28
2023-05-01T06:57:44.046Z,65.83
2023-05-01T07:00:11.538Z,64.91
2023-05-01T07:02:38.587Z,64.33
2023-05-01T07:05:05.740Z,64.12
2023-05-01T07:07:32.682Z,63.28
2023-05-01T07:09:59.573Z,62.48
2023-05-01T07:12:26.977Z,62.28
2023-05-01T07:14:53.973Z,61.97
2023-05-01T07:17:20.836Z,61.57
2023-05-01T07:19:47.670Z,60.60
2023-05-01T07:22:14.500Z,60.40
2023-05-01T07:24:41.224Z,59.46
2023-05-01T07:27:08.118Z,59.07
2023-05-01T07:29:40.321Z,58.38
2023-05-01T07:32:07.642Z,58.41
2023-05-01T07:34:34.710Z,58.49
2023-05-01T07:37:01.749Z,57.70
2023-05-01T07:39:28.477Z,57.13
2023-05-01T07:41:57.055Z,56.75
2023-05-01T07:44:24.470Z,56.49
2023-05-01T07:46:51.192Z,55.69
2023-05-01T07:49:17.910Z,55.31
2023-05-01T07:51:45.789Z,55.11
2023-05-01T07:54:14.981Z,54.74
2023-05-01T07:56:41.960Z,54.85
2023-05-01T07:59:08.886Z,54.42
2023-05-01T08:01:36.634Z,53.84
2023-05-01T08:04:03.530Z,54.21
2023-05-01T08:06:32.216Z,53.27
2023-05-01T08:08:59.083Z,52.64
2023-05-01T08:11:26.928Z,53.03
2023-05-01T08:13:53.799Z,52.10
2023-05-01T08:16:22.099Z,52.13
2023-05-01T08:18:49.097Z,52.49
2023-05-01T08:21:16.044Z,53.31
2023-05-01T08:23:42.793Z,52.48
2023-05-01T08:26:09.766Z,52.57
2023-05-01T08:28:36.752Z,52.83
2023-05-01T08:31:04.026Z,52.26
2023-05-01T08:33:30.864Z,52.55
2023-05-01T08:35:57.731Z,52.21
2023-05-01T08:38:24.444Z,52.21
2023-05-01T08:40:54.413Z,51.18
2023-05-01T08:43:21.362Z,51.28
2023-05-01T08:45:48.996Z,50.63
2023-05-01T08:48:18.026Z,50.37
2023-05-01T08:50:46.648Z,49.69
2023-05-01T08:53:15.444Z,49.67
2023-05-01T08:55:44.435Z,49.34
2023-05-01T08:58:11.299Z,48.98
2023-05-01T09:00:39.464Z,48.59
2023-05-01T09:03:06.347Z,48.10
2023-05-01T09:05:33.405Z,47.23
2023-05-01T09:08:00.475Z,46.92
2023-05-01T09:10:27.315Z,46.20
2023-05-01T09:12:58.721Z,45.69
2023-05-01T09:15:29.043Z,45.00
2023-05-01T09:17:56.563Z,44.94
2023-05-01T09:20:23.599Z,44.82
2023-05-01T09:22:50.826Z,44.85
2023-05-01T09:25:18.318Z,45.12
2023-05-01T09:27:46.102Z,44.68
2023-05-01T09:30:36.831Z,43.82
2023-05-01T09:33:14.289Z,43.21
2023-05-01T09:35:54.992Z,42.82
2023-05-01T09:38:26.147Z,41.89
2023-05-01T09:40:57.334Z,41.94
2023-05-01T09:43:27.898Z,42.45
2023-05-01T09:46:05.564Z,41.91
2023-05-01T09:48:35.250Z,41.89
2023-05-01T09:51:24.172Z,40.59
2023-05-01T09:53:51.561Z,41.37
2023-05-01T09:56:19.189Z,40.76
2023-05-01T09:58:46.762Z,40.44
2023-05-01T10:01:13.632Z,40.32
2023-05-01T10:03:40.671Z,40.22
2023-05-01T10:06:07.541Z,40.17
2023-05-01T10:08:49.486Z,39.92
2023-05-01T10:11:16.300Z,40.11
2023-05-01T10:13:43.069Z,39.74
2023-05-01T10:16:29.495Z,39.05
2023-05-01T10:18:57.686Z,38.78
2023-05-01T10:21:24.548Z,38.66
2023-05-01T10:23:52.910Z,38.50
2023-05-01T10:26:20.781Z,37.70
2023-05-01T10:28:49.067Z,37.03
2023-05-01T10:31:16.596Z,37.41
2023-05-01T10:33:44.199Z,36.88
2023-05-01T10:36:22.931Z,36.47
2023-05-01T10:38:49.684Z,35.96
2023-05-01T10:41:19.106Z,35.80
2023-05-01T10:43:46.119Z,36.15
2023-05-01T10:46:21.821Z,35.77
2023-05-01T10:48:51.495Z,35.95
2023-05-01T10:51:24.380Z,36.33
2023-05-01T10:54:14.430Z,36.40
2023-05-01T10:56:43.071Z,36.88
2023-05-01T10:59:09.684Z,37.59
2023-05-01T11:01:43.171Z,36.99
2023-05-01T11:04:22.141Z,36.73
2023-05-01T11:07:11.358Z,36.35
2023-05-01T11:09:41.753Z,36.58
2023-05-01T11:12:12.781Z,37.04
2023-05-01T11:14:55.899Z,37.42
2023-05-01T11:17:44.075Z,37.23
2023-05-01T11:20:11.482Z,37.22
2023-05-01T11:22:40.134Z,36.93
2023-05-01T11:25:20.774Z,37.55
2023-05-01T11:27:52.367Z,36.60
2023-05-01T11:30:19.185Z,36.44
2023-05-01T11:32:47.479Z,36.13
2023-05-01T11:35:26.437Z,35.92
2023-05-01T11:37:55.840Z,35.83
2023-05-01T11:40:26.353Z,35.27
2023-05-01T11:43:02.689Z,34.91
2023-05-01T11:45:29.625Z,34.78
2023-05-01T11:47:56.767Z,34.50
2023-05-01T11:50:23.964Z,34.56
2023-05-01T11:52:53.672Z,34.71
2023-05-01T11:55:21.266Z,34.65
2023-05-01T11:57:49.400Z,34.54
2023-05-01T12:00:17.233Z,34.58
2023-05-01T12:03:10.525Z,34.33
2023-05-01T12:05:39.278Z,34.49
2023-05-01T12:08:14.275Z,33.65
2023-05-01T12:10:43.200Z,33.66
2023-05-01T12:13:11.057Z,33.17
2023-05-01T12:15:39.885Z,32.63
2023-05-01T12:18:06.708Z,32.62
2023-05-01T12:20:37.935Z,31.83
2023-05-01T12:23:05.950Z,31.99
2023-05-01T12:25:36.662Z,31.94
2023-05-01T12:28:07.897Z,31.86
2023-05-01T12:30:34.633Z,32.02
2023-05-01T12:33:06.005Z,31.58
2023-05-01T12:35:32.969Z,31.54
2023-05-01T12:37:59.856Z,31.71
2023-05-01T12:40:27.118Z,31.45
2023-05-01T12:43:00.192Z,31.88
2023-05-01T12:45:26.914Z,31.31
2023-05-01T12:47:53.751Z,31.26
2023-05-01T12:50:21.008Z,30.29
2023-05-01T12:52:48.395Z,29.88
2023-05-01T12:55:15.165Z,29.03
2023-05-01T12:57:53.101Z,28.04
2023-05-01T13:00:19.774Z,29.10
2023-05-01T13:02:46.624Z,27.88
2023-05-01T13:05:13.711Z,27.44
2023-05-01T13:07:40.433Z,28.17
2023-05-01T13:10:07.659Z,28.85
2023-05-01T13:12:34.512Z,29.30
2023-05-01T13:15:01.356Z,29.82
2023-05-01T13:17:32.259Z,30.62
2023-05-01T13:20:00.608Z,31.34
2023-05-01T13:22:37.370Z,32.06
2023-05-01T13:25:05.596Z,32.64
2023-05-01T13:27:32.664Z,33.19
2023-05-01T13:30:00.024Z,33.86
2023-05-01T13:32:27.398Z,34.32
2023-05-01T13:34:54.484Z,34.81
2023-05-01T13:37:24.027Z,35.12
2023-05-01T13:39:51.269Z,35.51
2023-05-01T13:42:27.110Z,35.91
2023-05-01T13:44:55.827Z,36.15
2023-05-01T13:47:26.020Z,36.43
2023-05-01T13:49:52.921Z,37.23
2023-05-01T13:52:20.281Z,37.01
2023-05-01T13:54:47.867Z,37.45
2023-05-01T13:57:16.133Z,37.60
2023-05-01T13:59:44.165Z,37.94
2023-05-01T14:02:29.746Z,37.89
2023-05-01T14:05:00.079Z,37.77
2023-05-01T14:07:28.722Z,37.94
2023-05-01T14:10:00.010Z,38.38
2023-05-01T14:12:28.735Z,38.10
2023-05-01T14:14:55.611Z,38.64
2023-05-01T14:17:36.025Z,38.62
2023-05-01T14:20:03.007Z,38.79
2023-05-01T14:22:45.493Z,38.93
2023-05-01T14:25:34.090Z,39.04
2023-05-01T14:28:02.129Z,38.96
2023-05-01T14:30:33.824Z,39.21
2023-05-01T14:33:04.551Z,39.33
2023-05-01T14:35:31.401Z,39.43
2023-05-01T14:38:08.097Z,39.18
2023-05-01T14:40:34.852Z,39.50
2023-05-01T14:43:01.792Z,39.45
2023-05-01T14:45:28.829Z,39.56
2023-05-01T14:47:57.106Z,39.64
2023-05-01T14:50:24.409Z,40.30
2023-05-01T14:52:55.313Z,40.11
2023-05-01T14:55:28.111Z,40.89
2023-05-01T14:57:55.605Z,40.91
2023-05-01T15:00:25.433Z,41.17
2023-05-01T15:02:52.281Z,41.24
2023-05-01T15:05:19.290Z,41.19
2023-05-01T15:07:46.945Z,41.77
2023-05-01T15:10:13.799Z,41.52
2023-05-01T15:12:40.714Z,41.85
2023-05-01T15:15:08.507Z,41.90
2023-05-01T15:17:35.334Z,42.19
2023-05-01T15:20:02.308Z,42.34
2023-05-01T15:22:31.307Z,42.26
2023-05-01T15:24:58.385Z,42.33
2023-05-01T15:27:25.589Z,42.43
2023-05-01T15:29:52.432Z,42.03
2023-05-01T15:32:19.411Z,42.06
2023-05-01T15:34:46.591Z,41.90
2023-05-01T15:37:13.884Z,41.92
2023-05-01T15:39:40.796Z,42.10
2023-05-01T15:42:08.149Z,41.79
2023-05-01T15:44:35.116Z,41.88
2023-05-01T15:47:02.155Z,41.90
2023-05-01T15:49:29.052Z,42.21
2023-05-01T15:51:56.195Z,42.35
2023-05-01T15:54:24.721Z,42.67
2023-05-01T15:56:51.719Z,42.41
2023-05-01T15:59:18.446Z,42.41
2023-05-01T16:01:45.322Z,43.02
2023-05-01T16:04:12.361Z,43.21
2023-05-01T16:06:40.526Z,42.97
2023-05-01T16:09:07.997Z,43.41
2023-05-01T16:11:34.810Z,43.19
2023-05-01T16:14:01.533Z,43.33
2023-05-01T16:16:28.669Z,43.29
2023-05-01T16:18:57.441Z,43.18
2023-05-01T16:21:24.786Z,43.18
2023-05-01T16:23:53.248Z,43.47
2023-05-01T16:26:28.388Z,43.62
2023-05-01T16:28:58.854Z,43.51
2023-05-01T16:31:27.415Z,43.41
2023-05-01T16:33:54.948Z,43.07
2023-05-01T16:36:21.851Z,43.01
2023-05-01T16:38:48.867Z,43.27
2023-05-01T16:41:19.130Z,42.82
2023-05-01T16:43:46.510Z,42.91
2023-05-01T16:46:15.462Z,43.29
2023-05-01T16:48:42.326Z,43.16
2023-05-01T16:51:09.870Z,43.41
2023-05-01T16:53:36.898Z,42.90
2023-05-01T16:56:04.530Z,43.32
2023-05-01T16:58:31.414Z,42.87
2023-05-01T17:00:58.541Z,43.14
2023-05-01T17:03:25.304Z,43.27
2023-05-01T17:05:52.316Z,43.70
2023-05-01T17:08:19.343Z,43.40
2023-05-01T17:10:46.242Z,44.11
2023-05-01T17:13:15.839Z,43.52
2023-05-01T17:15:43.092Z,43.90
2023-05-01T17:18:10.012Z,43.63
2023-05-01T17:20:36.854Z,43.65
2023-05-01T17:23:04.050Z,43.48
2023-05-01T17:25:30.853Z,43.37
2023-05-01T17:27:59.145Z,43.59
2023-05-01T17:30:26.121Z,43.16
2023-05-01T17:32:53.440Z,43.24
2023-05-01T17:35:20.490Z,43.20
2023-05-01T17:37:47.486Z,43.40
2023-05-01T17:40:14.338Z,42.89
2023-05-01T17:42:41.962Z,43.28
2023-05-01T17:45:10.605Z,42.92
2023-05-01T17:47:41.652Z,42.89
2023-05-01T17:50:10.527Z,43.18
2023-05-01T17:52:38.724Z,42.84
2023-05-01T17:55:06.326Z,43.25
2023-05-01T17:57:37.607Z,43.01
2023-05-01T18:00:06.323Z,42.91
2023-05-01T18:02:35.628Z,43.22
2023-05-01T18:05:02.309Z,42.96
2023-05-01T18:07:30.885Z,43.02
2023-05-01T18:09:58.477Z,43.19
2023-05-01T18:12:25.626Z,43.17
2023-05-01T18:14:52.718Z,43.16
2023-05-01T18:17:21.783Z,43.05
2023-05-01T18:19:50.216Z,42.78
2023-05-01T18:22:17.405Z,43.09
2023-05-01T18:24:44.189Z,43.01
2023-05-01T18:27:11.744Z,42.99
2023-05-01T18:29:39.715Z,43.64
2023-05-01T18:32:07.309Z,43.66
2023-05-01T18:34:34.059Z,43.82
2023-05-01T18:37:00.787Z,44.14
2023-05-01T18:39:27.657Z,44.64
2023-05-01T18:41:54.776Z,44.57
2023-05-01T18:44:21.684Z,44.80
2023-05-01T18:46:49.248Z,45.20
2023-05-01T18:49:16.032Z,44.84
2023-05-01T18:51:43.172Z,45.09
2023-05-01T18:54:10.242Z,45.25
2023-05-01T18:56:37.241Z,45.21
2023-05-01T18:59:03.995Z,45.08
2023-05-01T19:01:30.994Z,45.46
2023-05-01T19:03:59.519Z,45.39
2023-05-01T19:06:26.852Z,45.83
2023-05-01T19:08:53.861Z,45.62
2023-05-01T19:11:21.694Z,46.05
2023-05-01T19:13:48.990Z,46.10
2023-05-01T19:16:16.031Z,46.23
2023-05-01T19:18:42.822Z,46.22
2023-05-01T19:21:11.129Z,46.42
2023-05-01T19:23:40.025Z,46.43
2023-05-01T19:26:08.028Z,46.42
2023-05-01T19:28:35.217Z,46.27
2023-05-01T19:31:02.163Z,46.25
2023-05-01T19:33:28.911Z,46.27
2023-05-01T19:35:55.967Z,46.45
2023-05-01T19:38:22.781Z,46.54
2023-05-01T19:40:49.571Z,46.40
2023-05-01T19:43:16.590Z,46.73
2023-05-01T19:45:43.926Z,46.85
2023-05-01T19:48:10.789Z,46.94
2023-05-01T19:50:37.558Z,46.88
2023-05-01T19:53:05.599Z,47.06
2023-05-01T19:55:32.570Z,47.04
2023-05-01T19:57:59.386Z,47.37
2023-05-01T20:00:27.752Z,47.29
2023-05-01T20:02:54.655Z,47.57
2023-05-01T20:05:21.601Z,47.55
2023-05-01T20:07:48.562Z,47.68
2023-05-01T20:10:16.857Z,47.92
2023-05-01T20:12:43.605Z,48.04
2023-05-01T20:15:12.276Z,47.98
2023-05-01T20:17:39.017Z,48.00
2023-05-01T20:20:06.219Z,48.33
2023-05-01T20:22:33.153Z,48.31
2023-05-01T20:25:00.192Z,48.54
2023-05-01T20:27:27.035Z,48.74
2023-05-01T20:29:54.044Z,48.71
2023-05-01T20:32:20.747Z,49.01
2023-05-01T20:34:48.062Z,49.00
2023-05-01T20:37:15.015Z,48.90
2023-05-01T20:39:41.722Z,49.16
2023-05-01T20:42:08.584Z,49.18
2023-05-01T20:44:35.472Z,49.24
2023-05-01T20:47:02.184Z,49.44
2023-05-01T20:49:28.908Z,49.42
2023-05-01T20:51:57.215Z,49.46
2023-05-01T20:54:25.691Z,49.54
2023-05-01T20:56:52.496Z,49.65
2023-05-01T20:59:19.390Z,49.58
2023-05-01T21:01:46.248Z,49.82
2023-05-01T21:04:14.344Z,49.60
2023-05-01T21:06:41.404Z,49.71
2023-05-01T21:09:11.194Z,49.74
2023-05-01T21:11:40.168Z,49.99
2023-05-01T21:14:08.153Z,50.04
2023-05-01T21:16:35.066Z,49.98
2023-05-01T21:19:01.841Z,49.98
2023-05-01T21:21:29.233Z,50.03
2023-05-01T21:23:56.105Z,50.33
2023-05-01T21:26:22.938Z,50.39
2023-05-01T21:28:49.728Z,50.31
2023-05-01T21:31:16.515Z,50.36
2023-05-01T21:33:46.398Z,50.46
2023-05-01T21:36:13.500Z,50.43
2023-05-01T21:38:40.353Z,50.43
2023-05-01T21:41:07.129Z,50.68
2023-05-01T21:43:34.227Z,50.68
2023-05-01T21:46:01.050Z,50.61
2023-05-01T21:48:27.884Z,50.72
2023-05-01T21:50:54.766Z,50.99
2023-05-01T21:53:21.776Z,51.06
2023-05-01T21:55:48.591Z,51.03
2023-05-01T21:58:15.520Z,50.86
2023-05-01T22:00:42.810Z,51.23
2023-05-01T22:03:10.685Z,51.11
2023-05-01T22:05:41.207Z,51.19
2023-05-01T22:08:07.983Z,51.21
2023-05-01T22:10:34.746Z,51.54
2023-05-01T22:13:01.571Z,51.82
2023-05-01T22:15:28.293Z,51.70
2023-05-01T22:17:55.104Z,51.88
2023-05-01T22:20:22.100Z,51.75
2023-05-01T22:22:48.902Z,52.00
2023-05-01T22:25:16.813Z,52.05
2023-05-01T22:27:43.742Z,52.08
2023-05-01T22:30:11.374Z,52.30
2023-05-01T22:32:38.220Z,52.52
2023-05-01T22:35:05.436Z,52.43
2023-05-01T22:37:32.150Z,52.69
2023-05-01T22:39:59.755Z,52.79
2023-05-01T22:42:27.010Z,52.56
2023-05-01T22:44:53.849Z,52.66
2023-05-01T22:47:20.596Z,52.83
2023-05-01T22:49:47.484Z,52.96
2023-05-01T22:52:14.525Z,53.07
2023-05-01T22:54:41.280Z,53.12
2023-05-01T22:57:08.120Z,53.20
2023-05-01T22:59:35.913Z,53.20
2023-05-01T23:02:05.614Z,53.24
2023-05-01T23:04:32.657Z,53.19
2023-05-01T23:06:59.513Z,53.38
2023-05-01T23:09:26.617Z,53.69
2023-05-01T23:11:53.651Z,53.44
2023-05-01T23:14:20.540Z,53.43
2023-05-01T23:16:47.461Z,53.51
2023-05-01T23:19:24.104Z,53.48
2023-05-01T23:22:05.017Z,53.51
2023-05-01T23:24:49.981Z,53.71
2023-05-01T23:27:17.452Z,53.72
2023-05-01T23:30:00.463Z,53.75
2023-05-01T23:32:32.033Z,53.60
2023-05-01T23:35:14.109Z,53.73
2023-05-01T23:37:40.840Z,53.82
2023-05-01T23:40:08.425Z,54.20
2023-05-01T23:42:37.031Z,53.93
2023-05-01T23:45:05.157Z,54.07
2023-05-01T23:47:31.885Z,54.18
2023-05-01T23:49:58.961Z,54.10
2023-05-01T23:52:26.079Z,53.84
2023-05-01T23:54:52.992Z,54.00
2023-05-01T23:57:19.937Z,53.71
2023-05-01T23:59:46.685Z,53.71
